createdAt,value
2023-04-12T00:01:08.377Z,10.50
2023-04-12T00:03:39.618Z,10.50
2023-04-12T00:06:11.823Z,10.30
2023-04-12T00:08:42.973Z,10.40
2023-04-12T00:11:14.119Z,10.40
2023-04-12T00:13:44.690Z,10.50
2023-04-12T00:16:16.098Z,10.60
2023-04-12T00:18:47.042Z,10.60
2023-04-12T00:21:19.943Z,10.70
2023-04-12T00:23:50.618Z,10.70
2023-04-12T00:26:21.941Z,10.70
2023-04-12T00:28:52.738Z,10.70
2023-04-12T00:31:24.018Z,10.50
2023-04-12T00:33:55.110Z,10.30
2023-04-12T00:36:27.069Z,10.10
2023-04-12T00:38:57.677Z,10.00
2023-04-12T00:41:28.900Z,9.90
2023-04-12T00:43:59.714Z,9.90
2023-04-12T00:46:30.690Z,10.00
2023-04-12T00:49:01.767Z,10.20
2023-04-12T00:51:34.091Z,10.40
2023-04-12T00:54:05.625Z,10.30
2023-04-12T00:56:37.855Z,10.30
2023-04-12T00:59:08.752Z,10.40
2023-04-12T01:01:41.516Z,10.30
2023-04-12T01:04:14.229Z,10.10
2023-04-12T01:06:51.027Z,9.90
2023-04-12T01:09:27.510Z,9.70
2023-04-12T01:12:04.338Z,9.50
2023-04-12T01:14:39.095Z,9.30
2023-04-12T01:17:13.608Z,9.30
2023-04-12T01:20:36.255Z,9.40
2023-04-12T01:23:35.191Z,9.30
2023-04-12T01:26:20.564Z,9.50
2023-04-12T01:28:54.366Z,9.60
2023-04-12T01:31:26.195Z,10.00
2023-04-12T01:33:58.922Z,10.00
2023-04-12T01:36:49.636Z,9.70
2023-04-12T01:39:21.533Z,9.50
2023-04-12T01:41:52.844Z,9.60
2023-04-12T01:44:23.454Z,9.50
2023-04-12T01:46:54.601Z,9.50
2023-04-12T01:49:28.276Z,9.40
2023-04-12T01:52:02.004Z,9.20
2023-04-12T01:54:35.883Z,9.20
2023-04-12T01:57:08.816Z,9.20
2023-04-12T01:59:42.420Z,9.10
2023-04-12T02:02:14.261Z,9.20
2023-04-12T02:04:45.981Z,9.10
2023-04-12T02:07:20.561Z,9.10
2023-04-12T02:09:51.228Z,9.10
2023-04-12T02:12:23.701Z,9.20
2023-04-12T02:14:54.644Z,9.20
2023-04-12T02:17:25.270Z,9.20
2023-04-12T02:19:55.893Z,9.20
2023-04-12T02:22:26.633Z,9.20
2023-04-12T02:24:57.884Z,9.20
2023-04-12T02:27:28.459Z,9.20
2023-04-12T02:29:59.972Z,9.10
2023-04-12T02:32:40.167Z,9.00
2023-04-12T02:35:12.071Z,8.90
2023-04-12T02:37:44.141Z,8.90
2023-04-12T02:40:16.517Z,9.00
2023-04-12T02:42:47.202Z,9.10
2023-04-12T02:45:17.886Z,9.20
2023-04-12T02:47:48.496Z,9.30
2023-04-12T02:50:19.277Z,9.20
2023-04-12T02:52:49.988Z,9.20
2023-04-12T02:55:20.758Z,9.20
2023-04-12T02:57:51.818Z,9.10
2023-04-12T03:00:22.893Z,9.10
2023-04-12T03:02:53.675Z,9.00
2023-04-12T03:05:24.864Z,9.00
2023-04-12T03:07:55.474Z,9.00
2023-04-12T03:10:26.254Z,8.90
2023-04-12T03:12:56.832Z,9.00
2023-04-12T03:15:28.507Z,9.00
2023-04-12T03:17:59.205Z,8.90
2023-04-12T03:20:48.726Z,9.00
2023-04-12T03:23:20.186Z,8.90
2023-04-12T03:25:50.987Z,8.90
2023-04-12T03:28:22.041Z,8.90
2023-04-12T03:30:53.029Z,8.90
2023-04-12T03:33:23.725Z,8.90
2023-04-12T03:35:54.357Z,8.80
2023-04-12T03:38:25.124Z,8.90
2023-04-12T03:40:55.793Z,8.90
2023-04-12T03:43:27.516Z,9.00
2023-04-12T03:45:58.113Z,9.20
2023-04-12T03:48:28.771Z,9.40
2023-04-12T03:51:00.224Z,9.60
2023-04-12T03:53:31.587Z,9.50
2023-04-12T03:56:02.171Z,9.10
2023-04-12T03:58:34.183Z,9.00
2023-04-12T04:01:06.973Z,8.70
2023-04-12T04:03:38.036Z,8.70
2023-04-12T04:06:10.917Z,8.80
2023-04-12T04:08:42.896Z,8.90
2023-04-12T04:11:14.406Z,9.00
2023-04-12T04:13:46.828Z,9.00
2023-04-12T04:16:18.322Z,9.40
2023-04-12T04:18:49.047Z,9.30
2023-04-12T04:21:19.789Z,9.30
2023-04-12T04:23:52.225Z,9.20
2023-04-12T04:26:24.445Z,9.10
2023-04-12T04:28:55.048Z,9.00
2023-04-12T04:31:26.703Z,9.00
2023-04-12T04:33:57.579Z,8.90
2023-04-12T04:36:28.475Z,8.80
2023-04-12T04:38:59.282Z,8.80
2023-04-12T04:41:34.738Z,8.80
2023-04-12T04:44:07.213Z,8.90
2023-04-12T04:46:39.756Z,8.80
2023-04-12T04:49:10.392Z,8.50
2023-04-12T04:51:41.149Z,8.30
2023-04-12T04:54:12.126Z,8.10
2023-04-12T04:56:42.772Z,8.00
2023-04-12T04:59:13.665Z,7.90
2023-04-12T05:01:44.552Z,8.10
2023-04-12T05:04:15.642Z,8.40
2023-04-12T05:06:47.773Z,8.60
2023-04-12T05:09:18.419Z,8.50
2023-04-12T05:11:49.157Z,8.70
2023-04-12T05:14:20.444Z,8.90
2023-04-12T05:19:30.125Z,9.00
2023-04-12T05:22:01.476Z,9.00
2023-04-12T05:24:32.267Z,9.00
2023-04-12T05:27:02.949Z,8.90
2023-04-12T05:29:33.569Z,8.80
2023-04-12T05:32:05.090Z,8.70
2023-04-12T05:34:36.006Z,8.60
2023-04-12T05:37:07.062Z,8.60
2023-04-12T05:39:37.841Z,8.60
2023-04-12T05:42:09.770Z,8.40
2023-04-12T05:44:41.708Z,8.30
2023-04-12T05:47:12.376Z,8.40
2023-04-12T05:49:43.052Z,8.40
2023-04-12T05:52:13.631Z,8.60
2023-04-12T05:54:44.257Z,8.70
2023-04-12T05:57:15.508Z,8.90
2023-04-12T05:59:46.930Z,9.10
2023-04-12T06:02:17.825Z,9.20
2023-04-12T06:04:51.011Z,9.20
2023-04-12T06:07:21.492Z,9.30
2023-04-12T06:09:52.266Z,9.20
2023-04-12T06:12:22.929Z,9.20
2023-04-12T06:14:53.896Z,9.20
2023-04-12T06:17:24.530Z,9.30
2023-04-12T06:22:34.904Z,9.50
2023-04-12T06:25:06.384Z,9.60
2023-04-12T06:27:37.072Z,9.60
2023-04-12T06:30:11.333Z,9.50
2023-04-12T06:32:42.393Z,9.50
2023-04-12T06:35:13.214Z,9.50
2023-04-12T06:37:44.010Z,9.50
2023-04-12T06:40:15.057Z,9.60
2023-04-12T06:42:45.892Z,9.70
2023-04-12T06:45:16.632Z,9.70
2023-04-12T06:47:47.645Z,9.70
2023-04-12T06:50:19.429Z,9.70
2023-04-12T06:52:50.067Z,9.70
2023-04-12T06:55:21.252Z,9.70
2023-04-12T06:57:52.365Z,9.70
2023-04-12T07:00:24.215Z,9.70
2023-04-12T07:02:55.484Z,9.80
2023-04-12T07:05:26.547Z,9.80
2023-04-12T07:07:57.276Z,9.90
2023-04-12T07:10:28.106Z,9.90
2023-04-12T07:13:00.402Z,10.00
2023-04-12T07:15:31.003Z,10.00
2023-04-12T07:18:01.742Z,10.00
2023-04-12T07:20:32.458Z,10.10
2023-04-12T07:23:03.382Z,10.20
2023-04-12T07:25:34.623Z,10.10
2023-04-12T07:28:06.995Z,10.10
2023-04-12T07:30:40.064Z,10.00
2023-04-12T07:33:19.245Z,10.00
2023-04-12T07:35:43.689Z,10.00
2023-04-12T07:38:16.567Z,10.20
2023-04-12T07:40:49.954Z,10.30
2023-04-12T07:43:19.817Z,10.50
2023-04-12T07:45:50.957Z,10.60
2023-04-12T07:48:21.929Z,10.60
2023-04-12T07:50:52.817Z,10.50
2023-04-12T07:53:24.986Z,10.60
2023-04-12T07:55:56.523Z,10.60
2023-04-12T07:58:27.555Z,10.40
2023-04-12T08:01:00.941Z,10.40
2023-04-12T08:03:31.198Z,10.40
2023-04-12T08:06:02.376Z,10.50
2023-04-12T08:08:33.160Z,10.60
2023-04-12T08:11:05.526Z,10.70
2023-04-12T08:13:36.603Z,10.80
2023-04-12T08:18:44.345Z,10.90
2023-04-12T08:21:15.311Z,11.10
2023-04-12T08:23:46.572Z,11.20
2023-04-12T08:26:17.263Z,11.40
2023-04-12T08:28:48.790Z,11.50
2023-04-12T08:31:19.509Z,11.60
2023-04-12T08:33:50.223Z,11.70
2023-04-12T08:36:21.095Z,11.60
2023-04-12T08:38:53.205Z,11.70
2023-04-12T08:41:24.321Z,11.80
2023-04-12T08:43:56.936Z,11.90
2023-04-12T08:46:28.419Z,12.00
2023-04-12T08:48:59.927Z,12.10
2023-04-12T08:51:31.474Z,12.10
2023-04-12T08:54:02.249Z,12.00
2023-04-12T08:59:10.561Z,12.10
2023-04-12T09:01:43.872Z,12.10
2023-04-12T09:04:14.974Z,12.30
2023-04-12T09:06:46.011Z,12.40
2023-04-12T09:09:17.330Z,12.50
2023-04-12T09:11:48.379Z,12.70
2023-04-12T09:17:03.528Z,12.80
2023-04-12T09:19:36.177Z,12.60
2023-04-12T09:22:07.192Z,12.70
2023-04-12T09:24:48.966Z,12.70
2023-04-12T09:27:21.902Z,12.80
2023-04-12T09:29:53.315Z,12.70
2023-04-12T09:32:28.955Z,12.50
2023-04-12T09:35:02.460Z,12.40
2023-04-12T09:37:33.374Z,12.20
2023-04-12T09:40:05.527Z,12.20
2023-04-12T09:42:37.869Z,12.20
2023-04-12T09:45:25.914Z,12.20
2023-04-12T09:47:57.454Z,12.30
2023-04-12T09:50:29.804Z,12.50
2023-04-12T09:53:01.746Z,12.40
2023-04-12T09:55:33.376Z,12.30
2023-04-12T09:58:05.788Z,12.30
2023-04-12T10:00:37.400Z,12.30
2023-04-12T10:03:08.479Z,12.20
2023-04-12T10:05:41.413Z,12.30
2023-04-12T10:08:15.432Z,12.50
2023-04-12T10:10:48.377Z,12.70
2023-04-12T10:13:20.915Z,12.90
2023-04-12T10:15:53.441Z,12.90
2023-04-12T10:18:25.346Z,13.10
2023-04-12T10:20:56.654Z,13.20
2023-04-12T10:23:28.794Z,13.40
2023-04-12T10:26:00.360Z,13.60
2023-04-12T10:28:31.825Z,13.40
2023-04-12T10:31:04.507Z,13.50
2023-04-12T10:33:35.515Z,13.50
2023-04-12T10:36:09.139Z,13.40
2023-04-12T10:38:50.413Z,13.30
2023-04-12T10:41:22.085Z,13.40
2023-04-12T10:43:53.723Z,13.50
2023-04-12T10:46:54.503Z,13.50
2023-04-12T10:49:25.369Z,13.50
2023-04-12T10:52:16.203Z,13.50
2023-04-12T10:54:47.020Z,13.60
2023-04-12T10:57:49.940Z,13.90
2023-04-12T11:00:21.099Z,14.20
2023-04-12T11:03:13.710Z,14.40
2023-04-12T11:06:16.196Z,14.60
2023-04-12T11:08:43.014Z,14.50
2023-04-12T11:11:23.291Z,14.80
2023-04-12T11:13:59.966Z,14.50
2023-04-12T11:19:09.669Z,15.10
2023-04-12T11:21:40.613Z,15.10
2023-04-12T11:24:14.563Z,15.20
2023-04-12T11:26:46.475Z,15.20
2023-04-12T11:29:18.899Z,15.30
2023-04-12T11:31:50.130Z,15.40
2023-04-12T11:34:21.352Z,15.60
2023-04-12T11:36:55.194Z,15.40
2023-04-12T11:39:30.607Z,15.50
2023-04-12T11:42:03.487Z,15.60
2023-04-12T11:44:52.470Z,15.70
2023-04-12T11:47:10.688Z,15.40
2023-04-12T11:49:46.066Z,14.80
2023-04-12T11:52:18.255Z,14.70
2023-04-12T11:54:51.090Z,14.70
2023-04-12T12:00:00.465Z,15.00
2023-04-12T12:02:38.382Z,15.10
2023-04-12T12:05:08.663Z,15.30
2023-04-12T12:07:40.198Z,15.30
2023-04-12T12:10:18.485Z,15.30
2023-04-12T12:12:49.145Z,15.40
2023-04-12T12:15:20.822Z,15.50
2023-04-12T12:17:54.216Z,15.60
2023-04-12T12:20:26.862Z,15.50
2023-04-12T12:22:58.023Z,15.70
2023-04-12T12:25:30.682Z,15.40
2023-04-12T12:28:03.286Z,15.30
2023-04-12T12:30:35.627Z,15.20
2023-04-12T12:33:06.415Z,15.20
2023-04-12T12:35:38.843Z,15.30
2023-04-12T12:40:49.176Z,15.60
2023-04-12T12:43:22.107Z,15.80
2023-04-12T12:45:52.845Z,15.90
2023-04-12T12:48:23.604Z,16.10
2023-04-12T12:50:54.384Z,16.00
2023-04-12T12:53:25.058Z,16.00
2023-04-12T12:55:55.819Z,16.10
2023-04-12T12:58:27.351Z,16.00
2023-04-12T13:00:58.290Z,16.10
2023-04-12T13:03:30.013Z,16.20
2023-04-12T13:06:01.156Z,16.20
2023-04-12T13:08:34.858Z,16.20
2023-04-12T13:11:05.819Z,16.20
2023-04-12T13:13:36.653Z,16.10
2023-04-12T13:16:09.156Z,16.20
2023-04-12T13:18:40.151Z,16.00
2023-04-12T13:21:11.040Z,15.80
2023-04-12T13:23:42.468Z,15.90
2023-04-12T13:26:13.267Z,15.80
2023-04-12T13:28:44.023Z,15.80
2023-04-12T13:31:14.702Z,15.70
2023-04-12T13:33:45.684Z,15.60
2023-04-12T13:36:16.438Z,15.50
2023-04-12T13:38:47.679Z,15.60
2023-04-12T13:41:19.337Z,15.50
2023-04-12T13:43:50.063Z,15.60
2023-04-12T13:46:20.950Z,15.60
2023-04-12T13:48:52.057Z,15.60
2023-04-12T13:51:22.884Z,15.70
2023-04-12T13:53:53.656Z,15.80
2023-04-12T13:56:24.680Z,15.80
2023-04-12T13:58:55.653Z,15.80
2023-04-12T14:01:27.432Z,15.80
2023-04-12T14:03:58.551Z,15.80
2023-04-12T14:06:30.400Z,15.90
2023-04-12T14:09:01.380Z,15.80
2023-04-12T14:11:32.181Z,15.80
2023-04-12T14:14:03.028Z,15.90
2023-04-12T14:16:34.041Z,15.90
2023-04-12T14:19:04.735Z,15.80
2023-04-12T14:21:35.594Z,15.70
2023-04-12T14:24:16.193Z,15.60
2023-04-12T14:26:47.078Z,15.70
2023-04-12T14:29:18.658Z,15.70
2023-04-12T14:31:49.564Z,15.60
2023-04-12T14:34:21.694Z,15.40
2023-04-12T14:36:52.412Z,15.40
2023-04-12T14:42:01.706Z,15.30
2023-04-12T14:44:32.747Z,15.00
2023-04-12T14:47:03.438Z,14.70
2023-04-12T14:49:34.149Z,14.40
2023-04-12T14:52:06.816Z,14.30
2023-04-12T14:54:37.542Z,14.40
2023-04-12T14:57:08.206Z,14.00
2023-04-12T14:59:39.159Z,13.40
2023-04-12T15:02:10.156Z,13.20
2023-04-12T15:04:42.124Z,12.90
2023-04-12T15:07:12.912Z,12.70
2023-04-12T15:09:44.375Z,12.60
2023-04-12T15:12:15.127Z,12.60
2023-04-12T15:14:46.615Z,12.70
2023-04-12T15:17:17.256Z,12.60
2023-04-12T15:19:48.007Z,12.40
2023-04-12T15:22:18.933Z,12.30
2023-04-12T15:24:49.727Z,12.10
2023-04-12T15:27:20.564Z,12.10
2023-04-12T15:29:51.172Z,11.90
2023-04-12T15:32:23.051Z,12.00
2023-04-12T15:34:55.495Z,11.90
2023-04-12T15:37:26.889Z,12.00
2023-04-12T15:39:57.804Z,12.00
2023-04-12T15:42:29.424Z,12.10
2023-04-12T15:45:01.032Z,12.10
2023-04-12T15:47:32.288Z,12.10
2023-04-12T15:50:03.163Z,12.00
2023-04-12T15:52:34.258Z,12.00
2023-04-12T15:57:42.408Z,12.00
2023-04-12T16:00:22.892Z,11.90
2023-04-12T16:02:55.186Z,11.90
2023-04-12T16:05:27.444Z,11.90
2023-04-12T16:07:59.550Z,11.80
2023-04-12T16:13:06.821Z,11.80
2023-04-12T16:15:37.837Z,11.80
2023-04-12T16:18:09.425Z,11.70
2023-04-12T16:23:18.214Z,11.70
2023-04-12T16:25:49.458Z,11.60
2023-04-12T16:28:22.923Z,11.60
2023-04-12T16:30:54.239Z,11.60
2023-04-12T16:33:25.222Z,11.60
2023-04-12T16:35:56.112Z,11.60
2023-04-12T16:38:27.136Z,11.60
2023-04-12T16:40:58.178Z,11.70
2023-04-12T16:43:29.409Z,11.70
2023-04-12T16:46:02.058Z,11.70
2023-04-12T16:48:32.905Z,11.70
2023-04-12T16:51:04.902Z,11.70
2023-04-12T16:53:35.553Z,11.70
2023-04-12T16:56:06.844Z,11.60
2023-04-12T16:58:37.855Z,11.60
2023-04-12T17:01:09.760Z,11.70
2023-04-12T17:03:47.566Z,11.60
2023-04-12T17:06:21.136Z,11.60
2023-04-12T17:08:59.179Z,11.60
2023-04-12T17:11:31.259Z,11.50
2023-04-12T17:14:17.472Z,11.40
2023-04-12T17:16:52.026Z,11.30
2023-04-12T17:19:36.063Z,11.30
2023-04-12T17:22:45.009Z,11.30
2023-04-12T17:25:24.912Z,11.20
2023-04-12T17:28:13.235Z,11.30
2023-04-12T17:30:48.672Z,11.20
2023-04-12T17:33:19.640Z,11.20
2023-04-12T17:35:50.233Z,11.20
2023-04-12T17:38:20.968Z,11.20
2023-04-12T17:40:51.997Z,11.20
2023-04-12T17:43:23.059Z,11.20
2023-04-12T17:45:53.826Z,11.20
2023-04-12T17:48:24.543Z,11.20
2023-04-12T17:53:34.213Z,11.10
2023-04-12T17:56:05.335Z,11.00
2023-04-12T17:58:36.032Z,11.00
2023-04-12T18:01:07.129Z,11.00
2023-04-12T18:03:38.584Z,11.00
2023-04-12T18:06:09.608Z,10.90
2023-04-12T18:11:19.529Z,10.90
2023-04-12T18:13:50.104Z,10.90
2023-04-12T18:16:21.247Z,10.90
2023-04-12T18:18:52.810Z,10.90
2023-04-12T18:21:23.672Z,10.90
2023-04-12T18:23:54.613Z,10.80
2023-04-12T18:26:26.386Z,10.80
2023-04-12T18:28:57.662Z,10.80
2023-04-12T18:31:28.909Z,10.80
2023-04-12T18:33:59.770Z,10.80
2023-04-12T18:36:31.617Z,10.80
2023-04-12T18:39:02.270Z,10.80
2023-04-12T18:41:33.069Z,10.60
2023-04-12T18:44:04.048Z,10.60
2023-04-12T18:46:35.657Z,10.70
2023-04-12T18:49:06.875Z,10.60
2023-04-12T18:51:37.969Z,10.60
2023-04-12T18:54:10.568Z,10.60
2023-04-12T18:56:42.550Z,10.60
2023-04-12T18:59:14.894Z,10.60
2023-04-12T19:01:46.849Z,10.50
2023-04-12T19:04:18.270Z,10.40
2023-04-12T19:06:49.283Z,10.30
2023-04-12T19:09:20.205Z,10.20
2023-04-12T19:11:51.213Z,10.10
2023-04-12T19:14:21.969Z,10.10
2023-04-12T19:16:53.247Z,10.00
2023-04-12T19:19:24.053Z,10.00
2023-04-12T19:21:54.967Z,9.90
2023-04-12T19:24:25.993Z,9.70
2023-04-12T19:26:57.725Z,9.70
2023-04-12T19:29:28.729Z,9.70
2023-04-12T19:32:00.965Z,9.70
2023-04-12T19:34:32.297Z,9.70
2023-04-12T19:37:03.788Z,9.70
2023-04-12T19:39:35.022Z,9.90
2023-04-12T19:42:06.287Z,10.00
2023-04-12T19:44:40.229Z,10.20
2023-04-12T19:47:09.982Z,10.10
2023-04-12T19:49:40.692Z,9.90
2023-04-12T19:52:11.400Z,9.90
2023-04-12T19:54:42.039Z,9.80
2023-04-12T19:57:13.437Z,9.70
2023-04-12T19:59:44.000Z,9.70
2023-04-12T20:02:14.675Z,9.60
2023-04-12T20:04:45.428Z,9.70
2023-04-12T20:07:16.219Z,9.70
2023-04-12T20:09:46.832Z,9.70
2023-04-12T20:12:17.941Z,9.60
2023-04-12T20:14:48.590Z,9.60
2023-04-12T20:17:19.143Z,9.50
2023-04-12T20:19:50.281Z,9.40
2023-04-12T20:22:22.382Z,9.40
2023-04-12T20:24:54.311Z,9.40
2023-04-12T20:27:25.026Z,9.40
2023-04-12T20:29:55.707Z,9.40
2023-04-12T20:32:26.649Z,9.30
2023-04-12T20:34:58.466Z,9.20
2023-04-12T20:37:29.146Z,9.10
2023-04-12T20:40:00.390Z,9.10
2023-04-12T20:42:31.029Z,9.00
2023-04-12T20:45:01.803Z,9.00
2023-04-12T20:47:34.898Z,9.00
2023-04-12T20:50:06.250Z,9.00
2023-04-12T20:52:37.055Z,8.90
2023-04-12T20:55:11.214Z,9.00
2023-04-12T20:57:42.047Z,9.00
2023-04-12T21:00:18.210Z,9.00
2023-04-12T21:02:49.116Z,9.00
2023-04-12T21:05:20.369Z,8.90
2023-04-12T21:07:51.646Z,8.90
2023-04-12T21:10:22.452Z,8.80
2023-04-12T21:12:53.170Z,8.70
2023-04-12T21:15:24.861Z,8.70
2023-04-12T21:17:55.674Z,8.60
2023-04-12T21:20:26.880Z,8.50
2023-04-12T21:22:57.455Z,8.50
2023-04-12T21:25:28.385Z,8.40
2023-04-12T21:27:58.945Z,8.40
2023-04-12T21:30:29.585Z,8.40
2023-04-12T21:33:02.103Z,8.40
2023-04-12T21:35:32.996Z,8.40
2023-04-12T21:38:03.888Z,8.40
2023-04-12T21:40:34.645Z,8.50
2023-04-12T21:43:05.311Z,8.50
2023-04-12T21:45:36.014Z,8.50
2023-04-12T21:48:07.140Z,8.50
2023-04-12T21:50:38.325Z,8.40
2023-04-12T21:53:09.241Z,8.40
2023-04-12T21:55:40.263Z,8.40
2023-04-12T21:58:11.113Z,8.40
2023-04-12T22:00:41.799Z,8.30
2023-04-12T22:03:12.772Z,8.30
2023-04-12T22:05:51.099Z,8.30
2023-04-12T22:08:17.620Z,8.30
2023-04-12T22:10:49.212Z,8.20
2023-04-12T22:13:21.880Z,8.20
2023-04-12T22:15:53.562Z,8.30
2023-04-12T22:18:24.226Z,8.40
2023-04-12T22:20:57.927Z,8.40
2023-04-12T22:23:29.473Z,8.30
2023-04-12T22:26:00.064Z,8.20
2023-04-12T22:28:30.775Z,8.30
2023-04-12T22:31:02.560Z,8.30
2023-04-12T22:33:33.641Z,8.20
2023-04-12T22:36:06.322Z,8.10
2023-04-12T22:38:56.215Z,8.10
2023-04-12T22:41:28.618Z,8.10
2023-04-12T22:44:02.090Z,8.10
2023-04-12T22:46:33.331Z,8.10
2023-04-12T22:49:04.932Z,8.10
2023-04-12T22:51:35.659Z,8.00
2023-04-12T22:54:08.725Z,8.00
2023-04-12T22:56:58.030Z,8.00
2023-04-12T22:59:28.762Z,8.10
2023-04-12T23:01:59.821Z,8.10
2023-04-12T23:04:30.641Z,8.20
2023-04-12T23:07:02.275Z,8.20
2023-04-12T23:09:33.483Z,8.20
2023-04-12T23:12:06.596Z,8.20
2023-04-12T23:14:37.810Z,8.30
2023-04-12T23:17:08.619Z,8.30
2023-04-12T23:19:39.282Z,8.20
2023-04-12T23:22:10.765Z,8.20
2023-04-12T23:24:41.567Z,8.20
2023-04-12T23:27:12.381Z,8.10
2023-04-12T23:29:43.727Z,8.10
2023-04-12T23:32:14.809Z,8.20
2023-04-12T23:34:46.694Z,8.00
2023-04-12T23:37:18.009Z,7.90
2023-04-12T23:39:48.919Z,7.90
2023-04-12T23:42:20.352Z,7.90
2023-04-12T23:44:51.628Z,7.80
2023-04-12T23:47:22.337Z,7.80
2023-04-12T23:49:52.957Z,7.80
2023-04-12T23:52:23.619Z,7.70
2023-04-12T23:54:54.212Z,7.60
2023-04-12T23:57:25.419Z,7.60
2023-04-12T23:59:56.339Z,7.60
